Time;durP1;ratioP1;P1;durP2;ratioP2;P2;SDS_P1;SDS_P2;PMS_P1;PMS_P2;Temp;Humidity;BMP_temperature;BMP_pressure;BME280_temperature;BME280_humidity;BME280_pressure;Samples;Min_cycle;Max_cycle;Signal;HPM_P1;HPM_P2
2022/12/09 00:00:16;;;;;;;325.40;311.57;;;1.70;99.90;;;;;;5043051;28;20521;-83
2022/12/09 00:02:43;;;;;;;326.30;312.33;;;1.70;99.90;;;;;;5042908;28;20483;-84
2022/12/09 00:05:10;;;;;;;324.50;309.77;;;1.80;99.90;;;;;;5044160;28;20450;-84
2022/12/09 00:07:36;;;;;;;334.77;319.87;;;1.70;99.90;;;;;;5045610;28;20948;-84
2022/12/09 00:10:03;;;;;;;333.57;319.07;;;1.80;99.90;;;;;;5046172;28;20448;-84
2022/12/09 00:12:30;;;;;;;349.67;333.80;;;1.70;99.90;;;;;;5046723;28;20468;-84
2022/12/09 00:14:58;;;;;;;343.73;328.97;;;1.70;99.90;;;;;;5045972;28;21008;-86
2022/12/09 00:17:25;;;;;;;361.90;345.90;;;1.70;99.90;;;;;;5047177;28;20995;-84
2022/12/09 00:19:51;;;;;;;367.33;350.07;;;1.70;99.90;;;;;;5046691;28;20979;-84
2022/12/09 00:22:18;;;;;;;388.20;370.90;;;1.70;99.90;;;;;;5046735;28;20475;-84
2022/12/09 00:24:45;;;;;;;381.83;364.07;;;1.60;99.90;;;;;;5046119;28;20455;-84
2022/12/09 00:27:11;;;;;;;390.57;373.33;;;1.70;99.90;;;;;;5045936;28;20532;-86
2022/12/09 00:29:38;;;;;;;400.97;383.17;;;1.70;99.90;;;;;;5046205;28;20466;-84
2022/12/09 00:32:06;;;;;;;407.50;389.67;;;1.70;99.90;;;;;;5045574;28;20476;-84
2022/12/09 00:34:33;;;;;;;419.83;400.97;;;1.70;99.90;;;;;;5046142;28;20471;-84
2022/12/09 00:37:00;;;;;;;436.10;416.60;;;1.70;99.90;;;;;;5046732;28;20459;-85
2022/12/09 00:39:26;;;;;;;445.93;425.97;;;1.70;99.90;;;;;;5046611;28;20456;-84
2022/12/09 00:41:53;;;;;;;462.93;441.63;;;1.90;99.90;;;;;;5046115;28;20490;-84
2022/12/09 00:44:20;;;;;;;459.00;437.40;;;1.90;99.90;;;;;;5046967;28;20448;-84
2022/12/09 00:46:47;;;;;;;446.93;425.77;;;1.80;99.90;;;;;;5046392;28;20459;-85
2022/12/09 00:49:15;;;;;;;454.00;432.40;;;1.80;99.90;;;;;;5046044;28;20456;-83
2022/12/09 00:51:41;;;;;;;457.07;435.93;;;1.80;99.90;;;;;;5045680;28;20468;-83
2022/12/09 00:54:08;;;;;;;457.43;435.83;;;2.00;99.90;;;;;;5045898;28;20458;-84
2022/12/09 00:56:35;;;;;;;445.53;425.00;;;2.00;99.90;;;;;;5046217;28;20452;-84
2022/12/09 00:59:02;;;;;;;441.40;419.50;;;2.00;99.90;;;;;;5047008;28;20846;-84
2022/12/09 01:01:29;;;;;;;415.40;396.70;;;2.00;99.90;;;;;;5045652;28;20476;-84
2022/12/09 01:03:56;;;;;;;397.40;379.20;;;2.10;99.90;;;;;;5046791;28;20498;-84
2022/12/09 01:06:26;;;;;;;369.63;352.80;;;2.10;99.90;;;;;;5045226;28;20452;-83
2022/12/09 01:08:53;;;;;;;366.87;348.53;;;2.20;99.90;;;;;;5046321;28;20456;-84
2022/12/09 01:11:21;;;;;;;348.93;333.03;;;2.20;99.90;;;;;;5045490;28;21031;-84
2022/12/09 01:13:49;;;;;;;331.20;316.47;;;2.10;99.90;;;;;;5045627;28;20826;-84
2022/12/09 01:16:18;;;;;;;326.03;310.70;;;2.20;99.90;;;;;;5045622;28;20483;-84
2022/12/09 01:18:45;;;;;;;308.87;295.40;;;2.10;99.90;;;;;;5045616;28;20452;-84
2022/12/09 01:21:12;;;;;;;303.60;289.80;;;2.10;99.90;;;;;;5045589;28;20472;-84
2022/12/09 01:23:41;;;;;;;287.90;274.80;;;2.20;99.90;;;;;;5045349;28;20456;-84
2022/12/09 01:26:08;;;;;;;280.07;267.77;;;2.20;99.90;;;;;;5044681;28;20459;-84
2022/12/09 01:28:36;;;;;;;261.23;249.40;;;2.20;99.90;;;;;;5046017;28;20462;-85
2022/12/09 01:31:08;;;;;;;253.80;242.13;;;2.20;99.90;;;;;;5044852;28;20472;-84
2022/12/09 01:33:35;;;;;;;220.37;210.93;;;2.30;99.90;;;;;;5045959;28;20456;-86
2022/12/09 01:36:05;;;;;;;201.53;190.87;;;2.30;99.90;;;;;;5045329;28;20488;-84
2022/12/09 01:38:32;;;;;;;172.40;164.27;;;2.40;99.90;;;;;;5046198;28;20452;-84
2022/12/09 01:41:00;;;;;;;155.93;148.43;;;2.30;99.90;;;;;;5045415;28;20551;-84
2022/12/09 01:43:27;;;;;;;149.73;142.43;;;2.30;99.90;;;;;;5045729;28;20468;-84
2022/12/09 01:45:54;;;;;;;143.63;136.50;;;2.30;99.90;;;;;;5045058;28;20452;-82
2022/12/09 01:48:25;;;;;;;136.03;129.33;;;2.40;99.90;;;;;;5046229;28;20453;-84
2022/12/09 01:50:55;;;;;;;136.53;129.80;;;2.30;99.90;;;;;;5045125;28;20476;-85
2022/12/09 01:53:26;;;;;;;151.43;143.77;;;2.30;99.90;;;;;;5045434;28;20456;-84
2022/12/09 01:55:55;;;;;;;166.20;158.40;;;2.30;99.90;;;;;;5044881;28;20491;-84
2022/12/09 01:58:24;;;;;;;184.17;176.07;;;2.30;99.90;;;;;;5042989;28;20452;-84
2022/12/09 02:00:51;;;;;;;200.83;192.27;;;2.20;99.90;;;;;;5044768;28;21014;-84
2022/12/09 02:03:18;;;;;;;210.60;201.37;;;2.10;99.90;;;;;;5045398;28;20452;-84
2022/12/09 02:05:45;;;;;;;217.93;208.93;;;2.20;99.90;;;;;;5045007;28;20817;-84
2022/12/09 02:08:13;;;;;;;230.67;220.60;;;2.20;99.90;;;;;;5045178;28;20478;-84
2022/12/09 02:10:49;;;;;;;249.67;239.33;;;2.10;99.90;;;;;;5044999;28;20623;-84
2022/12/09 02:13:26;;;;;;;240.50;230.73;;;2.00;99.90;;;;;;5045459;28;20448;-84
2022/12/09 02:15:57;;;;;;;239.67;230.23;;;2.00;99.90;;;;;;5044451;28;20472;-84
2022/12/09 02:18:27;;;;;;;240.20;230.27;;;1.90;99.90;;;;;;5044927;28;20489;-84
2022/12/09 02:21:00;;;;;;;240.13;230.67;;;1.90;99.90;;;;;;5044069;28;20844;-84
2022/12/09 02:23:34;;;;;;;251.27;240.90;;;1.90;99.90;;;;;;5044261;28;20453;-84
2022/12/09 02:26:10;;;;;;;262.93;252.07;;;1.80;99.90;;;;;;5044415;28;20455;-84
2022/12/09 02:29:12;;;;;;;278.33;267.00;;;1.70;99.90;;;;;;5044877;28;20456;-84
2022/12/09 02:31:56;;;;;;;282.57;271.57;;;1.70;99.90;;;;;;5044076;28;20479;-84
2022/12/09 02:34:28;;;;;;;296.77;284.67;;;1.70;99.90;;;;;;5043674;28;20961;-84
2022/12/09 02:37:03;;;;;;;311.33;299.00;;;1.70;99.90;;;;;;5044900;28;20445;-84
2022/12/09 02:39:36;;;;;;;333.43;319.93;;;1.70;99.90;;;;;;5044550;28;20454;-84
2022/12/09 02:42:06;;;;;;;357.07;342.00;;;1.60;99.90;;;;;;5043928;28;20472;-84
2022/12/09 02:44:33;;;;;;;373.07;357.47;;;1.60;99.90;;;;;;5044448;28;20453;-84
2022/12/09 02:47:01;;;;;;;379.40;363.40;;;1.70;99.90;;;;;;5044626;28;20452;-84
2022/12/09 02:49:32;;;;;;;371.13;355.10;;;1.60;99.90;;;;;;5044588;28;20448;-84
2022/12/09 02:51:59;;;;;;;386.37;369.27;;;1.60;99.90;;;;;;5044522;28;20464;-84
2022/12/09 02:54:28;;;;;;;393.23;376.47;;;1.50;99.90;;;;;;5043840;28;20453;-86
2022/12/09 02:56:57;;;;;;;391.63;374.60;;;1.60;99.90;;;;;;5044978;28;20484;-84
2022/12/09 02:59:24;;;;;;;388.43;372.20;;;1.60;99.90;;;;;;5044513;28;20462;-84
2022/12/09 03:01:59;;;;;;;397.77;380.10;;;1.50;99.90;;;;;;5043896;28;20566;-84
2022/12/09 03:04:30;;;;;;;414.97;397.50;;;1.50;99.90;;;;;;5044573;28;20460;-84
2022/12/09 03:07:07;;;;;;;426.60;408.17;;;1.50;99.90;;;;;;5043954;28;20444;-84
2022/12/09 03:09:40;;;;;;;448.17;427.57;;;1.50;99.90;;;;;;5044393;28;20484;-86
2022/12/09 03:12:11;;;;;;;458.97;438.40;;;1.50;99.90;;;;;;5043891;28;20487;-84
2022/12/09 03:14:41;;;;;;;470.87;449.67;;;1.40;99.90;;;;;;5043918;28;20510;-84
2022/12/09 03:17:12;;;;;;;480.50;458.10;;;1.40;99.90;;;;;;5044547;28;20460;-86
2022/12/09 03:19:45;;;;;;;489.83;467.30;;;1.40;99.90;;;;;;5043533;28;20498;-84
2022/12/09 03:22:16;;;;;;;500.73;476.60;;;1.40;99.90;;;;;;5043234;28;20480;-83
2022/12/09 03:24:50;;;;;;;505.17;480.97;;;1.40;99.90;;;;;;5044129;28;20459;-84
2022/12/09 03:27:21;;;;;;;510.20;484.93;;;1.30;99.90;;;;;;5044626;28;20452;-84
2022/12/09 03:29:50;;;;;;;518.90;492.70;;;1.40;99.90;;;;;;5044241;28;20456;-83
2022/12/09 03:32:19;;;;;;;531.47;504.47;;;1.40;99.90;;;;;;5043387;28;21016;-84
2022/12/09 03:34:49;;;;;;;537.17;509.57;;;1.40;99.90;;;;;;5044166;28;20456;-84
2022/12/09 03:37:18;;;;;;;543.87;514.20;;;1.40;99.90;;;;;;5043539;28;20475;-86
2022/12/09 03:39:47;;;;;;;540.00;509.77;;;1.50;99.90;;;;;;5043374;28;20478;-84
2022/12/09 03:42:19;;;;;;;545.40;515.33;;;1.50;99.90;;;;;;5042929;28;20482;-86
2022/12/09 03:44:50;;;;;;;544.33;513.20;;;1.50;99.90;;;;;;5043754;28;20528;-84
2022/12/09 03:47:17;;;;;;;535.53;506.40;;;1.50;99.90;;;;;;5044568;28;20909;-84
2022/12/09 03:49:44;;;;;;;530.07;501.17;;;1.50;99.90;;;;;;5043368;28;20471;-84
2022/12/09 03:52:17;;;;;;;520.37;491.63;;;1.50;99.90;;;;;;5043818;28;20504;-84
2022/12/09 03:54:45;;;;;;;518.47;490.80;;;1.50;99.90;;;;;;5043771;28;20452;-84
2022/12/09 03:57:19;;;;;;;514.40;486.87;;;1.50;99.90;;;;;;5043339;28;20480;-85
2022/12/09 03:59:51;;;;;;;518.53;490.87;;;1.60;99.90;;;;;;5043457;28;20460;-84
2022/12/09 04:02:18;;;;;;;512.63;485.87;;;1.50;99.90;;;;;;5043538;28;20476;-84
2022/12/09 04:04:45;;;;;;;516.73;489.10;;;1.50;99.90;;;;;;5043754;28;20456;-84
2022/12/09 04:07:13;;;;;;;517.40;489.33;;;1.50;99.90;;;;;;5042752;28;20967;-84
2022/12/09 04:09:40;;;;;;;508.27;480.57;;;1.60;99.90;;;;;;5042633;28;20459;-84
2022/12/09 04:12:07;;;;;;;503.93;477.40;;;1.50;99.90;;;;;;5042920;28;20475;-84
2022/12/09 04:14:34;;;;;;;510.70;483.33;;;1.60;99.90;;;;;;5043883;28;20452;-84
2022/12/09 04:17:01;;;;;;;506.47;478.20;;;1.60;99.90;;;;;;5043157;28;20492;-84
2022/12/09 04:19:28;;;;;;;497.00;471.10;;;1.60;99.90;;;;;;5024295;28;20457;-86
2022/12/09 04:21:54;;;;;;;503.90;477.23;;;1.60;99.90;;;;;;5022346;28;20540;-84
2022/12/09 04:24:23;;;;;;;498.03;471.80;;;1.60;99.90;;;;;;5023294;28;20449;-84
2022/12/09 04:26:49;;;;;;;491.43;465.03;;;1.70;99.90;;;;;;5023981;28;20476;-84
2022/12/09 04:29:16;;;;;;;493.57;468.37;;;1.80;99.90;;;;;;5023757;28;20452;-84
2022/12/09 04:31:43;;;;;;;484.67;459.67;;;1.80;99.90;;;;;;5022709;28;20468;-84
2022/12/09 04:34:09;;;;;;;490.43;465.40;;;1.80;99.90;;;;;;5023127;28;20465;-84
2022/12/09 04:36:37;;;;;;;477.53;453.43;;;1.90;99.90;;;;;;5023527;28;20480;-86
2022/12/09 04:39:04;;;;;;;476.43;453.27;;;1.90;99.90;;;;;;5023528;28;20464;-84
2022/12/09 04:41:32;;;;;;;467.43;443.73;;;1.90;99.90;;;;;;5022703;28;20479;-85
2022/12/09 04:43:58;;;;;;;473.87;450.70;;;1.90;99.90;;;;;;5023812;28;20463;-86
2022/12/09 04:46:25;;;;;;;469.97;446.67;;;2.00;99.90;;;;;;5023082;28;20464;-84
2022/12/09 04:48:53;;;;;;;474.07;450.67;;;1.90;99.90;;;;;;5023827;28;20484;-84
2022/12/09 04:51:19;;;;;;;463.17;440.90;;;2.00;99.90;;;;;;5022846;28;20480;-86
2022/12/09 04:53:46;;;;;;;457.47;435.87;;;2.00;99.90;;;;;;5027585;28;20464;-84
2022/12/09 04:56:15;;;;;;;441.83;420.43;;;2.00;99.90;;;;;;5027438;28;20557;-84
2022/12/09 04:58:43;;;;;;;422.97;403.50;;;1.90;99.90;;;;;;5026525;28;20456;-85
2022/12/09 05:01:12;;;;;;;418.97;399.80;;;2.00;99.90;;;;;;5026318;28;20473;-84
2022/12/09 05:03:39;;;;;;;412.67;393.80;;;2.00;99.90;;;;;;5027113;28;20453;-84
2022/12/09 05:06:08;;;;;;;414.13;395.17;;;2.00;99.90;;;;;;5026543;28;20460;-84
2022/12/09 05:08:35;;;;;;;412.57;393.97;;;2.00;99.90;;;;;;5026797;28;20453;-84
2022/12/09 05:11:02;;;;;;;416.30;396.90;;;2.00;99.90;;;;;;5026619;28;20477;-84
2022/12/09 05:13:29;;;;;;;422.00;402.70;;;2.10;99.90;;;;;;5027498;28;20449;-84
2022/12/09 05:16:01;;;;;;;419.90;399.47;;;2.00;99.90;;;;;;5026201;28;20788;-83
2022/12/09 05:18:27;;;;;;;416.17;397.07;;;2.00;99.90;;;;;;5026444;28;20509;-84
2022/12/09 05:20:54;;;;;;;382.53;364.93;;;2.00;99.90;;;;;;5025797;28;20477;-84
2022/12/09 05:23:21;;;;;;;360.50;343.60;;;2.00;99.90;;;;;;5026492;28;20456;-84
2022/12/09 05:25:48;;;;;;;345.20;329.23;;;2.00;99.90;;;;;;5026396;28;20446;-84
2022/12/09 05:28:15;;;;;;;358.27;341.40;;;2.00;99.90;;;;;;5025672;28;20453;-84
2022/12/09 05:30:42;;;;;;;357.23;340.37;;;2.00;99.90;;;;;;5025475;28;20460;-84
2022/12/09 05:33:10;;;;;;;367.33;350.67;;;2.00;99.90;;;;;;5026122;28;20475;-84
2022/12/09 05:35:36;;;;;;;366.40;349.87;;;2.10;99.90;;;;;;5024961;28;20827;-84
2022/12/09 05:38:04;;;;;;;386.07;368.97;;;2.00;99.90;;;;;;5023792;28;20451;-84
2022/12/09 05:40:30;;;;;;;372.27;355.40;;;2.00;99.90;;;;;;5023902;28;20828;-84
2022/12/09 05:42:57;;;;;;;363.50;347.07;;;2.00;99.90;;;;;;5023952;28;21009;-84
2022/12/09 05:45:24;;;;;;;355.80;339.13;;;1.90;99.90;;;;;;5024290;28;20453;-85
2022/12/09 05:47:50;;;;;;;369.90;353.20;;;1.80;99.90;;;;;;5024956;28;20464;-84
2022/12/09 05:50:19;;;;;;;392.87;375.23;;;1.80;99.90;;;;;;5024062;28;20457;-88
2022/12/09 05:52:45;;;;;;;418.70;399.77;;;1.70;99.90;;;;;;5021903;28;20484;-83
2022/12/09 05:55:12;;;;;;;436.50;416.13;;;1.70;99.90;;;;;;5022645;28;20487;-83
2022/12/09 05:57:39;;;;;;;446.00;424.30;;;1.80;99.90;;;;;;5024131;28;20481;-84
2022/12/09 06:00:07;;;;;;;470.47;448.37;;;1.70;99.90;;;;;;5025042;28;20461;-83
2022/12/09 06:02:34;;;;;;;489.13;464.73;;;1.80;99.90;;;;;;5023831;28;20473;-84
2022/12/09 06:05:01;;;;;;;491.03;466.90;;;1.80;99.90;;;;;;5024881;28;20740;-84
2022/12/09 06:07:31;;;;;;;487.77;463.60;;;1.80;99.90;;;;;;5025428;28;20540;-84
2022/12/09 06:09:58;;;;;;;495.57;469.87;;;1.90;99.90;;;;;;5025572;28;20464;-84
2022/12/09 06:12:25;;;;;;;502.00;476.83;;;1.80;99.90;;;;;;5025232;28;20556;-85
2022/12/09 06:14:51;;;;;;;512.90;486.60;;;1.80;99.90;;;;;;5025108;28;20484;-86
2022/12/09 06:17:18;;;;;;;527.90;499.00;;;1.80;99.90;;;;;;5024779;28;21001;-85
2022/12/09 06:19:45;;;;;;;526.87;499.50;;;1.70;99.90;;;;;;5024354;28;20460;-84
2022/12/09 06:22:11;;;;;;;523.53;496.63;;;1.80;99.90;;;;;;5021843;28;20865;-83
2022/12/09 06:24:40;;;;;;;504.03;477.63;;;1.70;99.90;;;;;;5022834;28;20445;-84
2022/12/09 06:27:06;;;;;;;490.83;465.53;;;1.70;99.90;;;;;;5023085;28;20449;-83
2022/12/09 06:29:33;;;;;;;491.27;466.27;;;1.60;99.90;;;;;;5021420;28;20459;-83
2022/12/09 06:32:00;;;;;;;501.60;474.60;;;1.70;99.90;;;;;;5020158;28;20476;-83
2022/12/09 06:34:27;;;;;;;509.47;482.50;;;1.70;99.90;;;;;;5020626;28;20465;-85
2022/12/09 06:36:54;;;;;;;501.23;474.80;;;1.70;99.90;;;;;;5020129;28;20526;-83
2022/12/09 06:39:21;;;;;;;492.83;467.40;;;1.70;99.90;;;;;;5020203;28;20456;-83
2022/12/09 06:41:49;;;;;;;486.83;462.60;;;1.70;99.90;;;;;;5020640;28;20477;-84
2022/12/09 06:44:16;;;;;;;486.37;461.10;;;1.70;99.90;;;;;;5020983;28;20460;-83
2022/12/09 06:46:42;;;;;;;497.63;471.80;;;1.60;99.90;;;;;;5020467;28;20463;-83
2022/12/09 06:49:09;;;;;;;521.43;494.70;;;1.40;99.90;;;;;;5020996;28;20457;-84
2022/12/09 06:51:36;;;;;;;519.93;492.23;;;1.50;99.90;;;;;;5020932;28;20826;-83
2022/12/09 06:54:03;;;;;;;533.63;505.47;;;1.50;99.90;;;;;;5021717;28;20453;-84
2022/12/09 06:56:31;;;;;;;550.97;521.13;;;1.40;99.90;;;;;;5022231;28;20473;-83
2022/12/09 06:58:59;;;;;;;561.57;532.27;;;1.40;99.90;;;;;;5023996;28;20496;-84
2022/12/09 07:01:26;;;;;;;562.47;532.97;;;1.40;99.90;;;;;;5022898;28;20477;-82
2022/12/09 07:03:54;;;;;;;572.37;542.50;;;1.40;99.90;;;;;;5022865;28;20468;-83
2022/12/09 07:06:25;;;;;;;583.30;551.17;;;1.50;99.90;;;;;;5021029;28;20452;-84
2022/12/09 07:08:52;;;;;;;587.53;555.07;;;1.50;99.90;;;;;;5022428;28;20449;-83
2022/12/09 07:11:19;;;;;;;588.57;556.17;;;1.50;99.90;;;;;;5021121;28;20477;-82
2022/12/09 07:13:46;;;;;;;599.23;566.60;;;1.60;99.90;;;;;;5021804;28;20836;-84
2022/12/09 07:16:14;;;;;;;596.03;562.43;;;1.60;99.90;;;;;;5019544;28;20484;-84
2022/12/09 07:18:41;;;;;;;598.60;564.87;;;1.60;99.90;;;;;;5021375;28;20771;-83
2022/12/09 07:21:08;;;;;;;600.50;567.10;;;1.60;99.90;;;;;;5019744;28;20477;-84
2022/12/09 07:23:35;;;;;;;573.40;542.53;;;1.50;99.90;;;;;;5019275;28;20457;-83
2022/12/09 07:26:04;;;;;;;580.27;549.30;;;1.50;99.90;;;;;;5020084;28;20449;-83
2022/12/09 07:28:31;;;;;;;588.33;556.93;;;1.50;99.90;;;;;;5019720;28;20460;-83
2022/12/09 07:30:58;;;;;;;622.10;586.33;;;1.40;99.90;;;;;;5020001;28;21031;-84
2022/12/09 07:33:26;;;;;;;633.87;598.40;;;1.20;99.90;;;;;;5032258;28;20456;-84
2022/12/09 07:35:54;;;;;;;641.23;604.40;;;1.10;99.90;;;;;;5038690;28;20463;-83
2022/12/09 07:38:21;;;;;;;660.00;621.57;;;1.00;99.90;;;;;;5039366;28;20502;-84
2022/12/09 07:40:48;;;;;;;672.30;631.97;;;0.90;99.90;;;;;;5040211;28;20472;-84
2022/12/09 07:43:14;;;;;;;665.57;625.17;;;0.80;99.90;;;;;;5040201;28;20452;-84
2022/12/09 07:45:41;;;;;;;684.47;642.30;;;0.70;99.90;;;;;;5041404;28;20456;-84
2022/12/09 07:48:08;;;;;;;688.23;645.53;;;0.70;99.90;;;;;;5041630;28;20452;-83
2022/12/09 07:50:37;;;;;;;677.67;633.87;;;0.60;99.90;;;;;;5039759;28;20456;-84
2022/12/09 07:53:03;;;;;;;683.97;640.47;;;0.60;99.90;;;;;;5041051;28;20463;-83
2022/12/09 07:55:30;;;;;;;699.93;653.57;;;0.60;99.90;;;;;;5025850;28;20453;-84
2022/12/09 07:57:57;;;;;;;698.07;650.07;;;0.70;99.90;;;;;;5020813;28;20492;-84
2022/12/09 08:00:24;;;;;;;699.03;650.57;;;0.80;99.90;;;;;;5019849;28;20464;-84
2022/12/09 08:02:52;;;;;;;698.27;650.00;;;0.90;99.90;;;;;;5021103;28;20473;-83
2022/12/09 08:05:19;;;;;;;695.73;647.70;;;1.00;99.90;;;;;;5020793;28;20454;-83
2022/12/09 08:07:47;;;;;;;703.83;655.67;;;1.00;99.90;;;;;;5020557;28;20449;-84
2022/12/09 08:10:14;;;;;;;697.33;649.00;;;1.10;99.90;;;;;;5020384;28;20445;-83
2022/12/09 08:12:40;;;;;;;689.03;640.57;;;1.20;99.90;;;;;;5021496;28;20477;-82
2022/12/09 08:15:08;;;;;;;683.13;635.13;;;1.30;99.90;;;;;;5022261;28;20453;-84
2022/12/09 08:17:35;;;;;;;662.60;618.13;;;1.40;99.90;;;;;;5020807;28;20510;-84
2022/12/09 08:20:01;;;;;;;664.17;617.77;;;1.50;99.90;;;;;;5021404;28;20464;-84
2022/12/09 08:22:28;;;;;;;657.50;611.97;;;1.60;99.90;;;;;;5019850;28;20479;-84
2022/12/09 08:24:56;;;;;;;639.53;598.93;;;1.70;99.90;;;;;;5020960;28;20463;-84
2022/12/09 08:27:23;;;;;;;631.17;590.43;;;1.80;99.90;;;;;;5024143;28;20460;-84
2022/12/09 08:29:50;;;;;;;600.47;563.37;;;1.90;99.90;;;;;;5024258;28;20507;-84
2022/12/09 08:32:17;;;;;;;602.37;564.27;;;2.00;99.90;;;;;;5024245;28;20473;-84
2022/12/09 08:34:43;;;;;;;551.03;517.97;;;2.10;99.90;;;;;;5024200;28;20512;-83
2022/12/09 08:37:10;;;;;;;524.07;494.80;;;2.10;99.90;;;;;;5023671;28;20597;-84
2022/12/09 08:39:37;;;;;;;528.50;500.30;;;2.30;99.90;;;;;;5023529;28;20457;-84
2022/12/09 08:42:05;;;;;;;500.83;474.27;;;2.40;99.90;;;;;;5025026;28;20473;-84
2022/12/09 08:44:32;;;;;;;484.07;459.20;;;2.60;99.90;;;;;;5024930;28;20460;-83
2022/12/09 08:47:01;;;;;;;438.20;415.70;;;2.70;99.90;;;;;;5024563;28;20445;-83
2022/12/09 08:49:28;;;;;;;359.40;341.87;;;2.80;99.90;;;;;;5024600;28;20453;-84
2022/12/09 08:51:55;;;;;;;304.40;290.50;;;2.90;99.90;;;;;;5024388;28;20472;-84
2022/12/09 08:54:22;;;;;;;297.03;283.37;;;3.00;99.90;;;;;;5024981;28;20456;-83
2022/12/09 08:56:51;;;;;;;297.93;284.00;;;3.20;99.90;;;;;;5025079;28;21004;-83
2022/12/09 08:59:19;;;;;;;276.77;264.37;;;3.10;99.90;;;;;;5025428;28;20457;-84
2022/12/09 09:01:46;;;;;;;226.83;216.83;;;3.10;99.90;;;;;;5024636;28;20472;-84
2022/12/09 09:04:16;;;;;;;146.70;139.50;;;3.20;99.90;;;;;;5024534;28;20540;-83
2022/12/09 09:06:47;;;;;;;102.27;97.23;;;3.20;99.90;;;;;;5024619;28;20449;-84
2022/12/09 09:09:14;;;;;;;153.93;147.23;;;3.10;99.90;;;;;;5024918;28;20499;-84
2022/12/09 09:11:41;;;;;;;77.13;72.67;;;3.10;99.90;;;;;;5023322;28;20485;-84
2022/12/09 09:14:10;;;;;;;108.53;103.23;;;3.10;99.90;;;;;;5024827;28;20489;-84
2022/12/09 09:16:40;;;;;;;119.30;113.60;;;3.10;99.90;;;;;;5024585;28;20457;-84
2022/12/09 09:19:07;;;;;;;77.97;73.93;;;3.20;99.90;;;;;;5024094;28;20449;-84
2022/12/09 09:21:37;;;;;;;77.17;72.97;;;3.30;99.90;;;;;;5023988;28;20473;-84
2022/12/09 09:24:09;;;;;;;83.63;78.73;;;3.40;99.90;;;;;;5024486;28;20480;-84
2022/12/09 09:26:38;;;;;;;100.93;95.73;;;3.60;99.90;;;;;;5025051;28;20492;-84
2022/12/09 09:29:05;;;;;;;93.77;88.90;;;3.60;99.90;;;;;;5024376;28;20536;-84
2022/12/09 09:31:33;;;;;;;58.90;54.13;;;3.70;99.90;;;;;;5024681;28;21000;-84
2022/12/09 09:34:01;;;;;;;44.37;41.30;;;3.80;99.90;;;;;;5024850;28;20468;-84
2022/12/09 09:36:27;;;;;;;26.87;18.83;;;3.90;99.90;;;;;;5024835;28;20454;-84
2022/12/09 09:38:57;;;;;;;25.17;16.20;;;4.00;99.90;;;;;;5023834;28;20464;-83
2022/12/09 09:41:36;;;;;;;21.53;13.30;;;4.10;99.90;;;;;;5023790;28;20469;-83
2022/12/09 09:44:03;;;;;;;19.73;13.20;;;4.20;99.90;;;;;;5025004;28;20512;-84
2022/12/09 09:46:36;;;;;;;18.13;12.37;;;4.20;99.90;;;;;;5023953;28;20456;-84
2022/12/09 09:49:10;;;;;;;20.30;12.67;;;4.10;99.90;;;;;;5025480;28;20448;-84
2022/12/09 09:51:37;;;;;;;18.70;13.00;;;4.20;99.90;;;;;;5024136;28;20527;-84
2022/12/09 09:54:04;;;;;;;21.13;13.57;;;4.20;99.90;;;;;;5024265;28;20457;-85
2022/12/09 09:56:39;;;;;;;17.00;11.27;;;4.20;99.90;;;;;;5024422;28;20457;-84
2022/12/09 09:59:19;;;;;;;20.57;11.77;;;4.00;99.90;;;;;;5024615;28;20437;-84
2022/12/09 10:01:52;;;;;;;21.97;13.20;;;4.10;99.90;;;;;;5024687;28;20492;-84
2022/12/09 10:04:28;;;;;;;20.17;13.17;;;4.30;99.90;;;;;;5024804;28;20500;-85
2022/12/09 10:07:01;;;;;;;23.50;13.77;;;4.40;99.90;;;;;;5025158;28;20449;-84
2022/12/09 10:09:37;;;;;;;19.10;11.50;;;4.40;99.90;;;;;;5025849;28;20453;-84
2022/12/09 10:12:15;;;;;;;23.80;13.50;;;4.30;99.90;;;;;;5024886;28;20484;-84
2022/12/09 10:14:48;;;;;;;20.33;13.50;;;4.30;99.90;;;;;;5024046;28;20739;-84
2022/12/09 10:17:24;;;;;;;20.13;12.60;;;4.20;99.90;;;;;;5024270;28;20481;-84
2022/12/09 10:19:56;;;;;;;20.70;12.10;;;4.10;99.90;;;;;;5024658;28;20847;-85
2022/12/09 10:22:26;;;;;;;18.63;13.10;;;3.90;99.90;;;;;;5024440;28;20487;-84
2022/12/09 10:24:55;;;;;;;19.23;14.60;;;3.70;99.90;;;;;;5024844;28;20441;-84
2022/12/09 10:27:29;;;;;;;22.43;15.23;;;3.50;99.90;;;;;;5024113;28;20453;-84
2022/12/09 10:29:58;;;;;;;20.70;14.90;;;3.40;99.90;;;;;;5023552;28;20453;-84
2022/12/09 10:32:32;;;;;;;25.07;15.37;;;3.40;99.90;;;;;;5021912;28;20939;-84
2022/12/09 10:35:01;;;;;;;28.00;17.97;;;3.40;99.90;;;;;;5023232;28;20923;-84
2022/12/09 10:37:31;;;;;;;24.77;15.67;;;3.40;99.90;;;;;;5024403;28;20540;-85
2022/12/09 10:40:03;;;;;;;30.27;16.83;;;3.30;99.90;;;;;;5023645;28;20457;-84
2022/12/09 10:45:19;;;;;;;24.23;18.20;;;3.40;99.90;;;;;;5023723;28;20460;-84
2022/12/09 10:47:51;;;;;;;28.03;20.33;;;3.50;99.90;;;;;;5024008;28;20456;-84
2022/12/09 10:50:30;;;;;;;25.87;19.90;;;3.70;99.90;;;;;;5022623;28;20461;-83
2022/12/09 10:52:58;;;;;;;32.30;22.20;;;3.80;99.90;;;;;;5022456;28;20457;-85
2022/12/09 10:55:30;;;;;;;28.63;19.90;;;3.90;99.90;;;;;;5020795;28;20471;-84
2022/12/09 10:58:14;;;;;;;25.73;17.70;;;4.10;99.90;;;;;;5023713;28;20477;-84
2022/12/09 11:00:41;;;;;;;20.17;14.10;;;4.20;99.90;;;;;;5022429;28;20464;-86
2022/12/09 11:03:25;;;;;;;25.73;17.83;;;4.30;99.90;;;;;;5023332;28;20834;-86
2022/12/09 11:05:59;;;;;;;25.90;14.50;;;4.40;99.90;;;;;;5023173;28;20492;-86
2022/12/09 11:08:26;;;;;;;21.40;13.40;;;4.50;99.90;;;;;;5023434;28;20453;-84
2022/12/09 11:10:53;;;;;;;24.77;14.80;;;4.50;99.90;;;;;;5022479;28;20469;-84
2022/12/09 11:13:37;;;;;;;28.37;15.43;;;4.40;99.90;;;;;;5023669;28;20453;-84
2022/12/09 11:16:06;;;;;;;25.30;17.27;;;4.60;99.90;;;;;;5023352;28;20491;-86
2022/12/09 11:18:42;;;;;;;20.73;15.30;;;4.60;99.90;;;;;;5023207;28;21005;-85
2022/12/09 11:21:30;;;;;;;26.10;17.13;;;4.50;99.90;;;;;;5022920;28;20541;-86
2022/12/09 11:23:56;;;;;;;24.83;16.30;;;4.60;99.90;;;;;;5023579;28;20835;-84
2022/12/09 11:26:25;;;;;;;23.25;15.45;;;4.60;99.90;;;;;;5022386;28;20454;-85
2022/12/09 11:29:00;;;;;;;23.73;14.53;;;4.80;99.90;;;;;;5023375;28;20194;-84
2022/12/09 11:31:28;;;;;;;28.10;17.37;;;4.80;99.90;;;;;;5024100;28;21055;-84
2022/12/09 11:33:57;;;;;;;28.00;14.90;;;4.90;99.90;;;;;;5022614;28;20492;-84
2022/12/09 11:36:29;;;;;;;24.13;14.83;;;5.00;99.90;;;;;;5022506;28;20479;-84
2022/12/09 11:39:10;;;;;;;25.02;16.45;;;5.10;99.90;;;;;;5022066;28;20485;-85
2022/12/09 11:44:26;;;;;;;28.37;17.23;;;5.10;99.90;;;;;;5024412;28;20491;-86
2022/12/09 11:47:00;;;;;;;26.00;15.13;;;5.00;99.90;;;;;;5024215;28;20461;-84
2022/12/09 11:49:28;;;;;;;24.73;14.70;;;4.90;99.90;;;;;;5023260;28;20965;-85
2022/12/09 11:52:22;;;;;;;24.47;15.80;;;4.80;99.90;;;;;;5023679;28;20468;-84
2022/12/09 11:54:56;;;;;;;21.70;14.27;;;4.70;99.90;;;;;;5023216;28;20516;-84
2022/12/09 11:57:31;;;;;;;27.73;14.90;;;4.70;99.90;;;;;;5023151;28;20456;-85
2022/12/09 12:00:02;;;;;;;26.43;13.63;;;4.50;99.90;;;;;;5022540;28;20448;-85
2022/12/09 12:02:38;;;;;;;30.33;16.13;;;4.60;99.90;;;;;;5026613;28;20473;-84
2022/12/09 12:05:17;;;;;;;28.97;17.60;;;4.50;99.90;;;;;;5028144;28;20456;-85
2022/12/09 12:07:50;;;;;;;29.70;18.43;;;4.50;99.90;;;;;;5028054;28;20539;-85
2022/12/09 12:10:23;;;;;;;27.70;17.10;;;4.20;99.90;;;;;;5028013;28;20977;-85
2022/12/09 12:13:02;;;;;;;30.97;18.90;;;4.20;99.90;;;;;;5027479;28;20473;-84
2022/12/09 12:15:37;;;;;;;30.40;17.80;;;4.20;99.90;;;;;;5027993;28;20453;-84
2022/12/09 12:18:08;;;;;;;29.30;18.80;;;4.20;99.90;;;;;;5025511;28;20483;-85
2022/12/09 12:20:47;;;;;;;30.37;19.17;;;4.30;99.90;;;;;;5027653;28;20807;-85
2022/12/09 12:23:29;;;;;;;32.10;17.40;;;4.30;99.90;;;;;;5028255;28;20463;-85
2022/12/09 12:26:03;;;;;;;35.20;21.80;;;4.30;99.90;;;;;;5026911;28;20457;-84
2022/12/09 12:28:42;;;;;;;35.43;22.40;;;4.40;99.90;;;;;;5027496;28;20456;-84
2022/12/09 12:31:23;;;;;;;34.50;19.77;;;4.40;99.90;;;;;;5023070;28;20495;-87
2022/12/09 12:34:02;;;;;;;43.23;24.53;;;4.40;99.90;;;;;;5017863;28;21028;-86
2022/12/09 12:36:37;;;;;;;29.80;21.03;;;4.40;99.90;;;;;;5017064;28;20524;-86
2022/12/09 12:39:14;;;;;;;32.67;19.37;;;4.30;99.90;;;;;;5021611;28;20480;-86